Time;durP1;ratioP1;P1;durP2;ratioP2;P2;SDS_P1;SDS_P2;PMS_P1;PMS_P2;Temp;Humidity;BMP_temperature;BMP_pressure;BME280_temperature;BME280_humidity;BME280_pressure;Samples;Min_cycle;Max_cycle;Signal;HPM_P1;HPM_P2
2023/06/19 00:02:00;;;;;;;7.75;6.95;;;22.80;90.40;;;;;;5067947;28;20505;-83
2023/06/19 00:04:26;;;;;;;7.70;6.93;;;22.80;90.50;;;;;;5053115;28;20061;-83
2023/06/19 00:06:52;;;;;;;7.35;6.75;;;22.80;90.40;;;;;;5052182;28;20053;-83
2023/06/19 00:09:18;;;;;;;7.40;6.67;;;22.80;90.40;;;;;;5065888;28;20052;-83
2023/06/19 00:11:44;;;;;;;7.90;6.60;;;22.80;90.30;;;;;;5053436;28;20475;-83
2023/06/19 00:14:10;;;;;;;7.40;6.68;;;22.90;90.10;;;;;;5062038;28;20052;-82
2023/06/19 00:16:35;;;;;;;8.70;7.15;;;22.90;90.00;;;;;;5059055;28;20056;-83
2023/06/19 00:19:03;;;;;;;7.38;6.78;;;22.90;90.10;;;;;;5058234;28;20107;-83
2023/06/19 00:21:28;;;;;;;;;;;22.90;89.90;;;;;;5033231;28;20460;-83
2023/06/19 00:23:54;;;;;;;7.50;6.75;;;23.00;89.70;;;;;;5055543;28;19925;-83
2023/06/19 00:26:22;;;;;;;7.05;6.35;;;23.00;89.80;;;;;;5062336;28;20045;-83
2023/06/19 00:28:49;;;;;;;7.25;6.55;;;23.00;90.00;;;;;;5071068;28;20167;-83
2023/06/19 00:31:16;;;;;;;8.15;6.82;;;23.00;89.90;;;;;;5081142;28;20048;-83
2023/06/19 00:33:42;;;;;;;7.43;6.53;;;23.00;89.90;;;;;;5081744;28;20048;-83
2023/06/19 00:36:12;;;;;;;7.95;7.15;;;23.00;89.90;;;;;;5026010;28;20060;-83
2023/06/19 00:38:42;;;;;;;6.82;6.22;;;23.00;90.00;;;;;;5059581;28;20056;-83
2023/06/19 00:41:08;;;;;;;7.50;6.90;;;23.10;89.80;;;;;;5061256;28;20045;-84
2023/06/19 00:43:34;;;;;;;7.40;6.75;;;23.00;90.00;;;;;;5042302;28;20126;-84
2023/06/19 00:46:01;;;;;;;7.30;6.70;;;23.00;90.20;;;;;;5067119;28;20052;-85
2023/06/19 00:48:28;;;;;;;7.75;6.75;;;22.90;90.30;;;;;;5077123;28;20052;-85
2023/06/19 00:50:54;;;;;;;;;;;22.80;90.30;;;;;;5060016;28;20048;-84
2023/06/19 00:53:22;;;;;;;7.10;6.50;;;22.80;90.30;;;;;;5056993;28;19951;-84
2023/06/19 00:55:47;;;;;;;;;;;22.70;90.60;;;;;;5042644;28;20036;-85
2023/06/19 00:58:13;;;;;;;8.30;7.18;;;22.70;90.70;;;;;;5059441;28;19927;-84
2023/06/19 01:00:39;;;;;;;7.65;6.45;;;22.60;90.70;;;;;;5057351;28;20049;-86
2023/06/19 01:03:04;;;;;;;9.63;7.13;;;22.60;90.80;;;;;;5058705;28;20048;-83
2023/06/19 01:05:30;;;;;;;7.90;7.13;;;22.60;90.90;;;;;;5037694;28;20037;-84
2023/06/19 01:08:12;;;;;;;8.10;7.25;;;22.50;91.20;;;;;;5054872;28;20075;-84
2023/06/19 01:10:43;;;;;;;8.25;7.45;;;22.50;91.40;;;;;;5051761;28;20033;-84
2023/06/19 01:13:22;;;;;;;7.88;7.10;;;22.40;91.30;;;;;;5049085;28;20049;-84
2023/06/19 01:15:48;;;;;;;7.47;6.78;;;22.40;91.30;;;;;;5051816;28;20072;-85
2023/06/19 01:18:15;;;;;;;8.00;7.00;;;22.40;91.40;;;;;;5051120;28;20049;-84
2023/06/19 01:20:41;;;;;;;7.65;6.95;;;22.40;91.50;;;;;;5054290;28;20043;-84
2023/06/19 01:23:11;;;;;;;7.70;6.90;;;22.40;91.80;;;;;;5050787;28;20045;-84
2023/06/19 01:25:37;;;;;;;7.68;6.80;;;22.40;92.00;;;;;;5049020;28;20048;-84
2023/06/19 01:28:05;;;;;;;7.47;6.88;;;22.40;92.20;;;;;;5038207;28;20049;-84
2023/06/19 01:30:32;;;;;;;8.13;7.43;;;22.30;92.30;;;;;;5056022;28;20131;-84
2023/06/19 01:33:16;;;;;;;7.77;7.03;;;22.30;92.50;;;;;;5055975;28;20041;-84
2023/06/19 01:35:46;;;;;;;8.25;7.45;;;22.30;92.30;;;;;;5055093;28;20700;-84
2023/06/19 01:38:13;;;;;;;8.35;7.55;;;22.20;92.30;;;;;;5059210;28;20064;-83
2023/06/19 01:40:40;;;;;;;7.90;7.30;;;22.20;92.50;;;;;;5056259;28;20056;-84
2023/06/19 01:43:07;;;;;;;;;;;22.20;92.40;;;;;;5050846;28;20041;-84
2023/06/19 01:45:33;;;;;;;8.67;7.63;;;22.10;92.70;;;;;;5030385;28;19920;-84
2023/06/19 01:47:58;;;;;;;9.52;7.65;;;22.10;93.00;;;;;;5054822;28;20124;-84
2023/06/19 01:50:24;;;;;;;9.00;7.53;;;22.00;93.00;;;;;;5054794;28;20483;-83
2023/06/19 01:52:50;;;;;;;7.85;7.15;;;22.00;93.20;;;;;;5036907;28;20125;-84
2023/06/19 01:55:16;;;;;;;7.82;7.03;;;22.00;93.50;;;;;;5054250;28;20136;-83
2023/06/19 01:57:42;;;;;;;7.95;7.10;;;22.00;93.70;;;;;;5052457;28;20068;-83
2023/06/19 02:00:09;;;;;;;7.97;7.18;;;22.00;93.40;;;;;;5055532;28;20048;-83
2023/06/19 02:02:35;;;;;;;;;;;21.90;93.50;;;;;;5055810;28;20048;-84
2023/06/19 02:05:01;;;;;;;8.50;7.60;;;22.00;93.60;;;;;;5056712;28;19921;-83
2023/06/19 02:07:27;;;;;;;7.70;6.90;;;22.00;93.60;;;;;;5041194;28;20052;-82
2023/06/19 02:09:52;;;;;;;8.45;6.95;;;22.00;94.50;;;;;;5057802;28;20480;-83
2023/06/19 02:12:18;;;;;;;8.50;7.70;;;21.90;93.90;;;;;;5057096;28;20064;-83
2023/06/19 02:14:44;;;;;;;9.57;7.50;;;21.90;94.20;;;;;;5038517;28;20495;-83
2023/06/19 02:17:09;;;;;;;7.40;6.70;;;21.90;94.30;;;;;;5053910;28;20132;-83
2023/06/19 02:19:35;;;;;;;9.57;7.25;;;21.90;94.40;;;;;;5047849;28;20123;-84
2023/06/19 02:22:00;;;;;;;7.40;6.70;;;21.90;95.00;;;;;;5035145;28;20434;-83
2023/06/19 02:24:26;;;;;;;7.57;6.90;;;22.00;95.00;;;;;;5053658;28;20439;-83
2023/06/19 02:26:52;;;;;;;7.25;6.55;;;22.00;95.10;;;;;;5036517;28;20036;-83
2023/06/19 02:29:17;;;;;;;7.95;6.65;;;22.00;95.80;;;;;;5048019;28;20036;-84
2023/06/19 02:31:44;;;;;;;7.53;6.82;;;22.10;95.80;;;;;;5032915;28;20045;-84
2023/06/19 02:34:10;;;;;;;8.07;6.95;;;22.00;95.90;;;;;;5036832;28;20072;-83
2023/06/19 02:36:36;;;;;;;7.47;6.70;;;22.00;96.10;;;;;;5069553;28;20051;-84
2023/06/19 02:39:04;;;;;;;7.05;6.35;;;22.00;96.30;;;;;;5046026;28;20045;-83
2023/06/19 02:41:30;;;;;;;7.63;6.50;;;22.10;96.50;;;;;;5051740;28;20046;-82
2023/06/19 02:43:55;;;;;;;9.40;6.93;;;22.00;96.80;;;;;;5058110;28;20055;-82
2023/06/19 02:46:21;;;;;;;7.15;6.45;;;22.00;97.20;;;;;;5060325;28;20044;-82
2023/06/19 02:48:46;;;;;;;7.30;6.47;;;22.00;97.50;;;;;;5057274;28;20048;-82
2023/06/19 02:51:12;;;;;;;6.55;5.97;;;21.90;97.80;;;;;;5068125;28;20041;-83
2023/06/19 02:53:38;;;;;;;7.35;6.53;;;21.90;98.10;;;;;;5058458;28;20392;-82
2023/06/19 02:56:03;;;;;;;7.22;6.45;;;21.90;97.90;;;;;;5061445;28;20041;-82
2023/06/19 02:58:30;;;;;;;7.00;6.30;;;21.90;98.30;;;;;;5061150;28;20040;-82
2023/06/19 03:00:56;;;;;;;7.13;6.40;;;21.90;98.90;;;;;;5048648;28;20675;-82
2023/06/19 03:03:22;;;;;;;8.20;6.35;;;21.80;99.00;;;;;;5043496;28;20037;-81
2023/06/19 03:05:48;;;;;;;6.50;6.00;;;21.80;99.20;;;;;;5060701;28;20048;-81
2023/06/19 03:08:14;;;;;;;7.13;6.47;;;21.80;99.50;;;;;;5061192;28;20045;-81
2023/06/19 03:10:39;;;;;;;8.60;6.05;;;21.80;99.50;;;;;;5054589;28;20041;-81
2023/06/19 03:13:05;;;;;;;7.60;6.80;;;21.70;99.80;;;;;;5062646;28;20056;-81
2023/06/19 03:15:30;;;;;;;8.80;6.50;;;21.70;99.90;;;;;;5061984;28;20492;-81
2023/06/19 03:17:56;;;;;;;7.90;6.32;;;21.70;99.90;;;;;;5037518;28;20057;-81
2023/06/19 03:20:22;;;;;;;6.95;6.30;;;21.70;99.90;;;;;;5045674;28;20475;-81
2023/06/19 03:22:48;;;;;;;7.55;6.75;;;21.70;99.90;;;;;;5052427;28;20044;-81
2023/06/19 03:25:13;;;;;;;6.78;6.18;;;21.70;99.90;;;;;;5063333;28;20041;-81
2023/06/19 03:27:39;;;;;;;7.10;6.40;;;21.60;99.90;;;;;;5056308;28;20048;-82
2023/06/19 03:30:09;;;;;;;6.85;6.15;;;21.70;99.90;;;;;;5046358;28;20068;-83
2023/06/19 03:32:35;;;;;;;6.35;5.72;;;21.60;99.90;;;;;;5061134;28;20041;-83
2023/06/19 03:35:02;;;;;;;7.13;5.70;;;21.60;99.90;;;;;;5060928;28;20044;-82
2023/06/19 03:37:27;;;;;;;6.50;5.60;;;21.70;99.90;;;;;;5058578;28;20556;-83
2023/06/19 03:39:53;;;;;;;7.97;5.95;;;21.60;99.90;;;;;;5060623;28;20052;-82
2023/06/19 03:42:18;;;;;;;6.03;5.43;;;21.70;99.90;;;;;;5059947;28;20028;-81
2023/06/19 03:44:44;;;;;;;6.32;5.47;;;21.70;99.90;;;;;;5064003;28;20036;-81
2023/06/19 03:47:09;;;;;;;5.43;4.93;;;21.70;99.90;;;;;;5062180;28;20110;-81
2023/06/19 03:49:35;;;;;;;6.25;5.40;;;21.70;99.90;;;;;;5064145;28;20120;-81
2023/06/19 03:52:01;;;;;;;5.40;4.90;;;21.70;99.90;;;;;;5067401;28;20101;-81
2023/06/19 03:54:27;;;;;;;5.28;4.78;;;21.70;99.90;;;;;;5074047;28;20036;-81
2023/06/19 03:56:53;;;;;;;5.55;4.95;;;21.70;99.90;;;;;;5057277;28;20033;-81
2023/06/19 03:59:18;;;;;;;5.32;4.90;;;21.70;99.90;;;;;;5056887;28;20171;-81
2023/06/19 04:01:44;;;;;;;5.70;5.20;;;21.70;99.90;;;;;;5060359;28;20032;-82
2023/06/19 04:04:10;;;;;;;5.30;4.80;;;21.70;99.90;;;;;;5025585;28;20052;-82
2023/06/19 04:06:35;;;;;;;5.18;4.65;;;21.70;99.90;;;;;;5040502;28;20049;-83
2023/06/19 04:09:01;;;;;;;4.97;4.22;;;21.60;99.90;;;;;;5054304;28;20483;-84
2023/06/19 04:11:26;;;;;;;4.88;4.47;;;21.60;99.90;;;;;;5034739;28;20033;-84
2023/06/19 04:13:52;;;;;;;8.18;4.68;;;21.70;99.90;;;;;;5055365;28;20041;-84
2023/06/19 04:16:18;;;;;;;5.70;4.90;;;21.60;99.90;;;;;;5036389;28;20049;-82
2023/06/19 04:18:43;;;;;;;5.50;4.63;;;21.60;99.90;;;;;;5058299;28;20045;-82
2023/06/19 04:21:09;;;;;;;6.75;4.97;;;21.60;99.90;;;;;;5059553;28;20037;-82
2023/06/19 04:23:35;;;;;;;6.13;4.90;;;21.70;99.90;;;;;;5055468;28;20033;-82
2023/06/19 04:26:00;;;;;;;6.22;4.80;;;21.70;99.90;;;;;;5054042;28;20048;-84
2023/06/19 04:28:26;;;;;;;6.30;4.97;;;21.80;99.90;;;;;;5039191;28;20053;-83
2023/06/19 04:30:59;;;;;;;6.07;5.22;;;21.80;99.90;;;;;;5041200;28;20033;-82
2023/06/19 04:33:32;;;;;;;5.20;4.72;;;22.00;99.90;;;;;;5043021;28;20051;-82
2023/06/19 04:35:57;;;;;;;4.80;4.25;;;22.10;99.90;;;;;;5058200;28;20180;-82
2023/06/19 04:38:23;;;;;;;4.72;4.32;;;22.60;99.90;;;;;;5024194;28;20072;-83
2023/06/19 04:40:52;;;;;;;5.07;4.63;;;23.00;99.90;;;;;;5058415;28;20068;-82
2023/06/19 04:43:18;;;;;;;4.38;3.97;;;23.10;99.90;;;;;;5055126;28;20080;-82
2023/06/19 04:45:44;;;;;;;6.43;4.60;;;23.00;99.90;;;;;;5059713;28;20044;-82
2023/06/19 04:48:10;;;;;;;4.95;4.43;;;22.90;99.90;;;;;;5038921;28;20079;-82
2023/06/19 04:50:35;;;;;;;4.63;4.15;;;22.60;99.90;;;;;;5059300;28;20041;-82
2023/06/19 04:53:01;;;;;;;6.10;4.43;;;22.50;99.90;;;;;;5056663;28;20041;-82
2023/06/19 04:55:27;;;;;;;4.38;3.97;;;22.30;99.90;;;;;;5040559;28;20045;-82
2023/06/19 04:57:53;;;;;;;7.93;3.65;;;22.20;99.90;;;;;;5040097;28;20029;-82
2023/06/19 05:00:19;;;;;;;3.92;3.50;;;22.10;99.90;;;;;;5062552;28;20101;-82
2023/06/19 05:02:47;;;;;;;3.50;3.20;;;22.00;99.90;;;;;;5057710;28;20091;-82
2023/06/19 05:05:13;;;;;;;5.32;3.63;;;21.90;99.90;;;;;;5057854;28;20033;-82
2023/06/19 05:07:39;;;;;;;4.35;3.70;;;21.90;99.90;;;;;;5061681;28;20080;-82
2023/06/19 05:10:06;;;;;;;4.35;3.95;;;21.90;99.90;;;;;;5054796;28;20067;-83
2023/06/19 05:12:31;;;;;;;4.07;3.67;;;22.00;99.90;;;;;;5034285;28;20155;-83
2023/06/19 05:14:57;;;;;;;5.07;3.92;;;22.60;99.90;;;;;;5047557;28;20064;-83
2023/06/19 05:17:23;;;;;;;4.30;3.30;;;23.60;99.90;;;;;;5031287;28;20049;-84
2023/06/19 05:19:49;;;;;;;7.50;3.55;;;24.20;99.90;;;;;;5031209;28;20037;-83
2023/06/19 05:22:15;;;;;;;4.30;3.58;;;25.30;99.90;;;;;;5054303;28;20060;-82
2023/06/19 05:24:40;;;;;;;4.15;3.75;;;25.50;99.90;;;;;;5045271;28;20479;-83
2023/06/19 05:27:06;;;;;;;3.53;3.22;;;26.10;99.90;;;;;;5048675;28;20037;-83
2023/06/19 05:29:32;;;;;;;4.45;3.70;;;26.50;99.90;;;;;;5049551;28;20033;-83
2023/06/19 05:31:58;;;;;;;3.83;3.42;;;26.60;99.90;;;;;;5030128;28;20529;-84
2023/06/19 05:34:23;;;;;;;3.30;3.10;;;27.20;99.90;;;;;;5049351;28;20052;-85
2023/06/19 05:36:49;;;;;;;3.97;3.60;;;27.40;99.90;;;;;;5014181;28;20037;-83
2023/06/19 05:39:15;;;;;;;3.55;3.25;;;;;;;;;;5048518;28;20083;-82
2023/06/19 05:41:41;;;;;;;3.42;3.13;;;28.00;99.50;;;;;;5050693;28;20033;-81
2023/06/19 05:44:07;;;;;;;3.88;3.50;;;28.30;99.40;;;;;;5052710;28;20037;-81
2023/06/19 05:46:32;;;;;;;5.60;3.97;;;28.20;98.50;;;;;;5052708;28;20099;-81
2023/06/19 05:48:58;;;;;;;3.65;3.35;;;27.80;98.70;;;;;;5039971;28;20053;-79
2023/06/19 05:51:23;;;;;;;4.75;3.70;;;27.60;99.10;;;;;;5040407;28;20068;-82
2023/06/19 05:53:49;;;;;;;3.70;3.40;;;27.40;98.60;;;;;;5035845;28;20049;-84
2023/06/19 05:56:15;;;;;;;3.83;3.53;;;27.60;99.10;;;;;;5056236;28;20056;-81
2023/06/19 05:58:41;;;;;;;4.00;3.38;;;27.40;98.80;;;;;;5055407;28;20033;-81
2023/06/19 06:01:07;;;;;;;3.63;3.20;;;27.70;99.60;;;;;;5051017;28;20052;-85
2023/06/19 06:03:33;;;;;;;3.67;3.38;;;27.70;99.40;;;;;;5055403;28;20124;-83
2023/06/19 06:06:02;;;;;;;4.55;3.58;;;27.60;99.10;;;;;;5053708;28;20092;-84
2023/06/19 06:08:31;;;;;;;3.47;3.17;;;27.00;99.10;;;;;;5056869;28;20054;-81
2023/06/19 06:10:57;;;;;;;3.63;3.33;;;26.50;99.40;;;;;;5053898;28;20087;-81
2023/06/19 06:13:23;;;;;;;5.47;3.38;;;26.10;99.90;;;;;;5036467;28;20053;-81
2023/06/19 06:15:49;;;;;;;4.60;3.38;;;25.70;99.90;;;;;;5054479;28;20037;-81
2023/06/19 06:18:15;;;;;;;3.33;3.10;;;25.30;99.90;;;;;;5049753;28;20047;-81
2023/06/19 06:20:40;;;;;;;4.22;3.83;;;25.00;99.90;;;;;;5043466;28;20037;-85
2023/06/19 06:23:06;;;;;;;4.03;3.65;;;24.60;99.90;;;;;;5047882;28;20045;-84
2023/06/19 06:25:32;;;;;;;5.22;3.30;;;24.40;99.90;;;;;;5033133;28;20041;-85
2023/06/19 06:27:57;;;;;;;4.03;3.30;;;24.10;99.90;;;;;;5048159;28;20060;-84
2023/06/19 06:30:23;;;;;;;6.05;3.03;;;24.10;99.90;;;;;;5047135;28;20060;-84
2023/06/19 06:32:49;;;;;;;5.07;4.03;;;24.00;99.90;;;;;;5050992;28;20036;-84
2023/06/19 06:35:15;;;;;;;5.13;3.75;;;23.80;99.90;;;;;;5034596;28;20041;-84
2023/06/19 06:37:41;;;;;;;3.90;3.60;;;23.60;99.90;;;;;;5048906;28;20128;-81
2023/06/19 06:40:13;;;;;;;3.97;3.45;;;23.60;99.90;;;;;;5054323;28;20041;-82
2023/06/19 06:42:39;;;;;;;4.38;3.47;;;23.60;99.90;;;;;;5051343;28;20037;-81
2023/06/19 06:45:06;;;;;;;3.88;3.38;;;23.50;99.90;;;;;;5050851;28;20373;-81
2023/06/19 06:47:32;;;;;;;3.65;3.35;;;23.60;99.90;;;;;;5064119;28;20044;-80
2023/06/19 06:49:58;;;;;;;6.95;3.80;;;23.60;99.90;;;;;;5053713;28;20782;-81
2023/06/19 06:52:24;;;;;;;6.35;3.60;;;23.60;99.90;;;;;;5065339;28;20033;-80
2023/06/19 06:54:50;;;;;;;6.60;3.75;;;23.70;99.90;;;;;;5048594;28;20100;-80
2023/06/19 06:57:16;;;;;;;4.03;3.63;;;23.60;99.90;;;;;;5066409;28;20098;-80
2023/06/19 06:59:42;;;;;;;6.30;3.90;;;23.60;99.90;;;;;;5048165;28;20295;-80
2023/06/19 07:02:07;;;;;;;5.85;3.65;;;23.50;99.90;;;;;;5055147;28;20113;-80
2023/06/19 07:04:33;;;;;;;5.72;4.22;;;23.40;99.90;;;;;;5061223;28;20041;-80
2023/06/19 07:06:59;;;;;;;4.28;3.83;;;23.30;99.90;;;;;;5037029;28;20045;-81
2023/06/19 07:09:25;;;;;;;5.07;4.05;;;23.10;99.90;;;;;;5046682;28;20407;-81
2023/06/19 07:11:51;;;;;;;5.00;4.10;;;23.20;99.90;;;;;;5047398;28;20044;-81
2023/06/19 07:14:17;;;;;;;5.68;4.10;;;23.20;99.90;;;;;;5064525;28;20045;-82
2023/06/19 07:16:46;;;;;;;4.95;3.60;;;23.40;99.90;;;;;;5061898;28;20060;-82
2023/06/19 07:19:12;;;;;;;4.85;4.35;;;23.60;99.90;;;;;;5046971;28;20048;-81
2023/06/19 07:21:38;;;;;;;5.85;3.95;;;23.60;99.90;;;;;;5058655;28;20056;-81
2023/06/19 07:24:05;;;;;;;5.70;3.70;;;23.60;99.90;;;;;;5047026;28;20045;-81
2023/06/19 07:26:30;;;;;;;18.85;4.50;;;23.60;99.90;;;;;;5016396;28;20041;-81
2023/06/19 07:28:56;;;;;;;6.10;4.13;;;23.40;99.90;;;;;;5026012;28;20059;-81
2023/06/19 07:31:22;;;;;;;5.10;4.15;;;23.30;99.90;;;;;;5059257;28;20041;-81
2023/06/19 07:33:48;;;;;;;4.60;4.20;;;23.20;99.90;;;;;;5041135;28;20040;-81
2023/06/19 07:36:14;;;;;;;6.22;4.13;;;23.20;99.90;;;;;;5057389;28;20048;-81
2023/06/19 07:38:42;;;;;;;5.05;4.53;;;23.30;99.90;;;;;;5070948;28;20037;-81
2023/06/19 07:41:09;;;;;;;4.78;4.05;;;23.80;99.90;;;;;;5046260;28;20091;-81
2023/06/19 07:43:35;;;;;;;5.50;4.18;;;24.10;99.90;;;;;;5052998;28;20045;-81
2023/06/19 07:46:01;;;;;;;4.82;4.00;;;24.40;99.90;;;;;;5060122;28;20045;-81
2023/06/19 07:48:27;;;;;;;6.13;4.10;;;24.30;99.90;;;;;;5065927;28;20056;-81
2023/06/19 07:50:53;;;;;;;4.65;4.13;;;24.20;99.90;;;;;;5054955;28;20534;-82
2023/06/19 07:53:19;;;;;;;4.82;4.45;;;24.00;99.90;;;;;;5064655;28;20124;-81
2023/06/19 07:55:45;;;;;;;4.10;3.80;;;24.00;99.90;;;;;;5039403;28;20493;-81
2023/06/19 07:58:10;;;;;;;4.90;4.43;;;23.70;99.90;;;;;;5058332;28;20124;-81
2023/06/19 08:00:36;;;;;;;5.97;4.63;;;23.70;99.90;;;;;;5041833;28;20036;-81
2023/06/19 08:03:05;;;;;;;4.40;4.00;;;23.60;99.90;;;;;;5048906;28;20560;-80
2023/06/19 08:05:31;;;;;;;4.68;4.10;;;23.50;99.90;;;;;;5055554;28;20414;-80
2023/06/19 08:07:59;;;;;;;6.23;5.27;;;23.50;99.90;;;;;;5004383;28;1045338;-81
2023/06/19 08:10:25;;;;;;;5.03;4.57;;;23.30;99.90;;;;;;5065166;28;20045;-81
2023/06/19 08:12:51;;;;;;;6.80;6.20;;;23.20;99.90;;;;;;5063829;28;20455;-81
2023/06/19 08:15:17;;;;;;;6.57;5.97;;;23.10;99.90;;;;;;5027512;28;20062;-81
2023/06/19 08:17:42;;;;;;;6.85;6.20;;;23.00;99.90;;;;;;5055574;28;20041;-80
2023/06/19 08:20:09;;;;;;;7.65;6.95;;;22.90;99.90;;;;;;5052077;28;20037;-81
2023/06/19 08:22:35;;;;;;;8.80;6.03;;;22.80;99.90;;;;;;5062146;28;20029;-81
2023/06/19 08:25:01;;;;;;;6.88;5.72;;;22.80;99.90;;;;;;5070864;28;20047;-80
2023/06/19 08:27:26;;;;;;;9.77;6.25;;;22.80;99.90;;;;;;5057012;28;20100;-81
2023/06/19 08:29:52;;;;;;;9.52;6.13;;;22.80;99.90;;;;;;5044790;28;20602;-82
2023/06/19 08:32:17;;;;;;;7.93;5.63;;;22.90;99.90;;;;;;5040491;28;20053;-81
2023/06/19 08:34:43;;;;;;;6.55;6.03;;;22.90;99.90;;;;;;5059431;28;20092;-82
2023/06/19 08:37:09;;;;;;;7.97;6.43;;;23.20;99.90;;;;;;5042932;28;20099;-82
2023/06/19 08:39:38;;;;;;;7.95;6.25;;;23.30;99.90;;;;;;5057092;28;20048;-82
2023/06/19 08:42:08;;;;;;;6.50;5.75;;;23.30;99.90;;;;;;5060592;28;20095;-81
2023/06/19 08:44:34;;;;;;;6.60;6.00;;;23.50;99.90;;;;;;5051862;28;20953;-81
2023/06/19 08:47:03;;;;;;;6.28;5.72;;;23.60;99.90;;;;;;5041297;28;20032;-82
2023/06/19 08:49:34;;;;;;;6.53;5.88;;;23.60;99.90;;;;;;5057599;28;20115;-81
2023/06/19 08:52:00;;;;;;;6.20;5.70;;;23.50;99.90;;;;;;5051861;28;20267;-81
2023/06/19 08:54:26;;;;;;;5.47;4.97;;;23.40;99.90;;;;;;5055989;28;20496;-81
2023/06/19 08:56:53;;;;;;;7.40;5.90;;;23.30;99.90;;;;;;5052281;28;20291;-82
2023/06/19 08:59:19;;;;;;;7.47;5.82;;;23.20;99.90;;;;;;5057590;28;20214;-81
2023/06/19 09:01:51;;;;;;;9.70;5.85;;;23.10;99.90;;;;;;5047904;28;20056;-81
2023/06/19 09:04:19;;;;;;;8.43;5.53;;;23.10;99.90;;;;;;5053720;28;20049;-80
2023/06/19 09:06:57;;;;;;;5.88;5.38;;;23.00;99.90;;;;;;5055490;28;20174;-81
2023/06/19 09:09:24;;;;;;;9.43;6.10;;;23.00;99.90;;;;;;5039478;28;20573;-81
2023/06/19 09:12:04;;;;;;;8.85;5.80;;;23.10;99.90;;;;;;5054183;28;20163;-81
2023/06/19 09:14:37;;;;;;;7.82;5.78;;;23.40;99.90;;;;;;5041889;28;20094;-81
2023/06/19 09:17:04;;;;;;;6.50;5.95;;;23.50;99.90;;;;;;5059743;28;20037;-81
2023/06/19 09:19:31;;;;;;;9.05;6.18;;;24.10;99.90;;;;;;5055302;28;20036;-81
2023/06/19 09:22:08;;;;;;;6.00;5.40;;;24.20;99.90;;;;;;5030407;28;20045;-81
2023/06/19 09:24:36;;;;;;;6.13;5.38;;;24.60;99.90;;;;;;5048041;28;20064;-81
2023/06/19 09:27:13;;;;;;;5.70;5.28;;;24.80;99.90;;;;;;5033080;28;20056;-81
2023/06/19 09:29:50;;;;;;;6.20;5.38;;;24.80;99.90;;;;;;5062594;28;20037;-81
2023/06/19 09:32:20;;;;;;;;;;;24.90;99.90;;;;;;5059102;28;20047;-82
2023/06/19 09:34:46;;;;;;;6.78;5.82;;;;;;;;;;5053185;28;19921;-81
2023/06/19 09:37:13;;;;;;;7.83;7.10;;;25.20;99.90;;;;;;5039596;28;20040;-81
2023/06/19 09:39:40;;;;;;;9.50;7.03;;;25.20;99.90;;;;;;5023659;28;20064;-80
2023/06/19 09:42:09;;;;;;;7.75;6.95;;;25.40;99.90;;;;;;5060678;28;20044;-79
2023/06/19 09:44:41;;;;;;;7.15;6.57;;;25.60;99.90;;;;;;5025843;28;20060;-79
2023/06/19 09:47:30;;;;;;;10.18;7.50;;;26.10;99.90;;;;;;5041652;28;20056;-79
2023/06/19 09:49:57;;;;;;;8.02;7.32;;;26.50;99.90;;;;;;5061422;28;20048;-79
2023/06/19 09:52:24;;;;;;;7.85;7.25;;;26.50;99.90;;;;;;5061177;28;20045;-79
2023/06/19 09:54:51;;;;;;;8.05;7.32;;;26.40;99.90;;;;;;5059188;28;20463;-79
2023/06/19 09:57:18;;;;;;;;;;;26.30;99.90;;;;;;5028392;28;20049;-79
2023/06/19 09:59:45;;;;;;;8.48;7.68;;;26.10;99.90;;;;;;5062883;28;19927;-79
2023/06/19 10:02:12;;;;;;;8.20;7.60;;;26.30;99.90;;;;;;5062116;28;20082;-80
2023/06/19 10:04:57;;;;;;;7.40;6.80;;;26.20;99.90;;;;;;5063768;28;20051;-80
2023/06/19 10:07:27;;;;;;;8.23;7.32;;;26.40;99.90;;;;;;5042515;28;20064;-80
2023/06/19 10:10:08;;;;;;;11.68;7.50;;;26.40;99.90;;;;;;5061773;28;20059;-80
2023/06/19 10:12:43;;;;;;;8.50;7.43;;;26.50;99.90;;;;;;5061766;28;20372;-79
2023/06/19 10:15:12;;;;;;;8.32;7.53;;;26.30;99.90;;;;;;5061346;28;20040;-79
2023/06/19 10:17:42;;;;;;;7.28;6.63;;;26.60;99.90;;;;;;5057626;28;20056;-80
2023/06/19 10:20:22;;;;;;;8.68;7.88;;;26.50;99.90;;;;;;5057799;28;20545;-79
2023/06/19 10:22:52;;;;;;;8.23;6.28;;;26.30;99.90;;;;;;5058514;28;20037;-79
2023/06/19 10:25:23;;;;;;;7.80;7.10;;;26.40;99.90;;;;;;5040281;28;20049;-80
2023/06/19 10:27:52;;;;;;;7.28;6.50;;;26.30;99.90;;;;;;5059622;28;20080;-80
2023/06/19 10:30:19;;;;;;;7.07;6.50;;;26.20;99.90;;;;;;5060943;28;20093;-80
2023/06/19 10:32:46;;;;;;;7.97;6.47;;;26.30;99.90;;;;;;5059477;28;20048;-80
2023/06/19 10:35:13;;;;;;;13.35;7.13;;;26.60;99.90;;;;;;5060393;28;20068;-81
2023/06/19 10:37:39;;;;;;;8.48;7.30;;;26.40;99.90;;;;;;5064742;28;20068;-81
2023/06/19 10:40:09;;;;;;;9.90;6.50;;;26.60;99.90;;;;;;5068193;28;20063;-80
2023/06/19 10:42:36;;;;;;;7.82;6.15;;;26.60;99.90;;;;;;5071870;28;20163;-80
2023/06/19 10:45:05;;;;;;;7.05;5.80;;;26.40;99.90;;;;;;5044290;28;20045;-80
2023/06/19 10:47:32;;;;;;;6.32;5.32;;;26.40;99.90;;;;;;5062546;28;20045;-80
2023/06/19 10:49:58;;;;;;;;;;;26.80;99.90;;;;;;5039418;28;20033;-82
2023/06/19 10:52:24;;;;;;;7.23;4.80;;;27.00;99.90;;;;;;5062658;28;20286;-81
2023/06/19 10:54:54;;;;;;;8.45;5.10;;;26.90;99.90;;;;;;5056978;28;20049;-83
2023/06/19 10:57:30;;;;;;;10.88;5.82;;;27.10;99.90;;;;;;5046067;28;20040;-82
2023/06/19 10:59:56;;;;;;;6.32;5.32;;;27.40;99.80;;;;;;5062590;28;20033;-81
2023/06/19 11:02:22;;;;;;;8.47;5.87;;;27.30;99.50;;;;;;5044694;28;20045;-81
2023/06/19 11:04:48;;;;;;;7.72;6.15;;;27.50;99.90;;;;;;5056080;28;20060;-81
2023/06/19 11:07:14;;;;;;;9.33;6.30;;;27.20;99.40;;;;;;5041901;28;20048;-80
2023/06/19 11:09:40;;;;;;;8.18;6.38;;;27.50;99.60;;;;;;5056201;28;20186;-82
2023/06/19 11:12:07;;;;;;;7.53;6.53;;;27.40;99.30;;;;;;5059832;28;20553;-81
2023/06/19 11:14:39;;;;;;;8.10;6.15;;;27.30;99.10;;;;;;5051983;28;20136;-81
2023/06/19 11:17:06;;;;;;;8.45;6.88;;;27.50;99.50;;;;;;5053556;28;20048;-81
2023/06/19 11:19:33;;;;;;;9.40;6.20;;;27.50;99.50;;;;;;5038577;28;20055;-81
2023/06/19 11:22:02;;;;;;;7.78;6.13;;;27.70;99.60;;;;;;5036328;28;20056;-81
2023/06/19 11:24:28;;;;;;;10.20;7.07;;;27.70;99.40;;;;;;5057167;28;20073;-81
2023/06/19 11:26:58;;;;;;;12.10;6.72;;;27.70;99.10;;;;;;5042008;28;20044;-82
2023/06/19 11:29:29;;;;;;;10.07;7.30;;;27.60;99.10;;;;;;5057035;28;20061;-82
2023/06/19 11:32:12;;;;;;;9.63;7.20;;;27.90;99.20;;;;;;5058104;28;20060;-81
2023/06/19 11:34:38;;;;;;;10.00;7.55;;;27.80;98.90;;;;;;5056716;28;20041;-82
2023/06/19 11:37:14;;;;;;;8.48;7.68;;;27.80;98.70;;;;;;5047608;28;20037;-82
2023/06/19 11:39:41;;;;;;;7.57;6.50;;;27.90;98.30;;;;;;5053474;28;20073;-81
2023/06/19 11:42:08;;;;;;;13.20;7.40;;;27.40;98.20;;;;;;5037223;28;20033;-82
2023/06/19 11:44:33;;;;;;;7.15;6.25;;;27.30;98.10;;;;;;5056544;28;20069;-81
2023/06/19 11:47:00;;;;;;;6.43;5.82;;;27.50;98.30;;;;;;5057869;28;20037;-83
2023/06/19 11:49:28;;;;;;;8.10;6.95;;;27.50;98.30;;;;;;5057042;28;20053;-81
2023/06/19 11:51:53;;;;;;;8.02;7.20;;;27.50;98.40;;;;;;5054806;28;20045;-82
2023/06/19 11:54:20;;;;;;;8.43;6.70;;;27.30;98.10;;;;;;5045819;28;20059;-82
2023/06/19 11:56:47;;;;;;;7.80;6.75;;;27.10;98.00;;;;;;5056885;28;20103;-81
2023/06/19 11:59:14;;;;;;;;;;;27.10;98.10;;;;;;5067325;28;20045;-82
2023/06/19 12:01:39;;;;;;;8.15;6.53;;;27.30;97.90;;;;;;5069906;28;19980;-82
2023/06/19 12:04:06;;;;;;;7.15;6.45;;;27.30;97.90;;;;;;5052772;28;20041;-82
2023/06/19 12:06:32;;;;;;;9.37;7.73;;;27.70;98.20;;;;;;5058654;28;20045;-82
2023/06/19 12:08:57;;;;;;;7.78;6.97;;;27.80;97.80;;;;;;5058055;28;20070;-82
2023/06/19 12:11:24;;;;;;;8.75;6.60;;;27.90;97.60;;;;;;5068939;28;20045;-81
2023/06/19 12:13:50;;;;;;;13.50;6.90;;;27.70;97.30;;;;;;5071697;28;20063;-82
2023/06/19 12:16:16;;;;;;;7.97;7.28;;;27.80;97.90;;;;;;5071892;28;20041;-82
2023/06/19 12:18:41;;;;;;;9.10;6.82;;;27.90;97.50;;;;;;5073060;28;20032;-82
2023/06/19 12:21:07;;;;;;;8.95;6.72;;;28.10;97.30;;;;;;5065769;28;20049;-81
2023/06/19 12:23:33;;;;;;;8.25;7.53;;;28.10;97.70;;;;;;5066611;28;20055;-83
2023/06/19 12:25:59;;;;;;;8.00;7.25;;;28.10;97.30;;;;;;5072729;28;20041;-83
2023/06/19 12:28:25;;;;;;;9.65;8.15;;;28.10;97.60;;;;;;5068597;28;20052;-82
2023/06/19 12:30:52;;;;;;;9.93;7.82;;;28.00;97.30;;;;;;5066344;28;20041;-82
2023/06/19 12:33:20;;;;;;;8.32;7.63;;;28.10;97.20;;;;;;5061474;28;20499;-82
2023/06/19 12:35:46;;;;;;;9.75;7.40;;;28.10;97.30;;;;;;5060229;28;20110;-80
2023/06/19 12:38:11;;;;;;;7.50;6.63;;;28.10;97.20;;;;;;5052775;28;20077;-82
2023/06/19 12:40:37;;;;;;;8.25;7.32;;;28.10;97.50;;;;;;5061270;28;20040;-81
2023/06/19 12:43:03;;;;;;;9.00;8.10;;;28.10;97.60;;;;;;5061640;28;20045;-81
2023/06/19 12:45:29;;;;;;;13.02;6.82;;;27.90;97.00;;;;;;5048290;28;20051;-81
2023/06/19 12:47:54;;;;;;;14.10;8.43;;;28.00;97.40;;;;;;5065523;28;20055;-81
2023/06/19 12:50:20;;;;;;;10.43;7.63;;;27.70;96.90;;;;;;5062476;28;20159;-81